createdAt,value
2018-02-15T00:00:09.113Z,1015.88
2018-02-15T00:01:09.084Z,1015.91
2018-02-15T00:02:09.047Z,1015.75
2018-02-15T00:03:09.029Z,1015.99
2018-02-15T00:04:08.975Z,1015.83
2018-02-15T00:05:08.955Z,1015.82
2018-02-15T00:06:08.916Z,1015.68
2018-02-15T00:07:08.874Z,1015.89
2018-02-15T00:08:08.846Z,1015.93
2018-02-15T00:09:08.808Z,1015.93
2018-02-15T00:10:08.775Z,1015.92
2018-02-15T00:11:08.749Z,1015.99
2018-02-15T00:12:08.712Z,1015.97
2018-02-15T00:13:08.681Z,1015.96
2018-02-15T00:14:08.643Z,1015.96
2018-02-15T00:15:08.661Z,1015.84
2018-02-15T00:16:08.834Z,1015.86
2018-02-15T00:17:08.549Z,1015.91
2018-02-15T00:18:08.514Z,1015.92
2018-02-15T00:19:08.483Z,1015.84
2018-02-15T00:20:08.449Z,1015.86
2018-02-15T00:21:08.417Z,1015.81
2018-02-15T00:22:08.384Z,1015.86
2018-02-15T00:23:08.349Z,1015.83
2018-02-15T00:24:08.318Z,1015.75
2018-02-15T00:25:08.287Z,1015.78
2018-02-15T00:26:08.241Z,1015.72
2018-02-15T00:27:08.217Z,1015.71
2018-02-15T00:28:08.540Z,1015.61
2018-02-15T00:29:08.147Z,1015.68
2018-02-15T00:30:08.117Z,1015.68
2018-02-15T00:31:08.085Z,1015.68
2018-02-15T00:32:08.057Z,1015.55
2018-02-15T00:33:08.018Z,1015.74
2018-02-15T00:34:07.982Z,1015.60
2018-02-15T00:35:07.948Z,1015.72
2018-02-15T00:36:07.920Z,1015.58
2018-02-15T00:37:07.890Z,1015.67
2018-02-15T00:38:08.119Z,1015.63
2018-02-15T00:39:07.819Z,1015.58
2018-02-15T00:40:07.782Z,1015.60
2018-02-15T00:41:07.751Z,1015.62
2018-02-15T00:42:07.720Z,1015.50
2018-02-15T00:43:07.695Z,1015.54
2018-02-15T00:44:07.655Z,1015.50
2018-02-15T00:45:07.616Z,1015.55
2018-02-15T00:46:07.602Z,1015.52
2018-02-15T00:47:07.602Z,1015.49
2018-02-15T00:48:07.524Z,1015.57
2018-02-15T00:49:07.488Z,1015.54
2018-02-15T00:50:07.456Z,1015.50
2018-02-15T00:51:07.669Z,1015.50
2018-02-15T00:52:07.391Z,1015.46
2018-02-15T00:53:07.361Z,1015.49
2018-02-15T00:54:07.328Z,1015.53
2018-02-15T00:55:07.292Z,1015.52
2018-02-15T00:56:07.259Z,1015.60
2018-02-15T00:57:07.224Z,1015.54
2018-02-15T00:58:07.191Z,1015.42
2018-02-15T00:59:07.169Z,1015.39
2018-02-15T01:00:07.128Z,1015.48
2018-02-15T01:01:07.094Z,1015.46
2018-02-15T01:02:07.072Z,1015.40
2018-02-15T01:03:07.380Z,1015.33
2018-02-15T01:04:06.997Z,1015.39
2018-02-15T01:05:06.970Z,1015.30
2018-02-15T01:06:06.931Z,1015.27
2018-02-15T01:07:06.889Z,1015.23
2018-02-15T01:08:06.860Z,1015.31
2018-02-15T01:09:07.429Z,1015.26
2018-02-15T01:10:06.804Z,1015.22
2018-02-15T01:11:06.761Z,1015.28
2018-02-15T01:12:06.730Z,1015.20
2018-02-15T01:13:06.702Z,1015.12
2018-02-15T01:14:06.660Z,1015.23
2018-02-15T01:15:06.631Z,1015.23
2018-02-15T01:16:06.601Z,1015.19
2018-02-15T01:17:06.566Z,1015.15
2018-02-15T01:18:06.531Z,1015.05
2018-02-15T01:19:06.505Z,1015.22
2018-02-15T01:20:06.473Z,1015.12
2018-02-15T01:21:06.447Z,1015.15
2018-02-15T01:22:06.402Z,1015.26
2018-02-15T01:23:06.368Z,1015.08
2018-02-15T01:24:06.334Z,1015.14
2018-02-15T01:25:06.555Z,1015.21
2018-02-15T01:26:06.267Z,1015.08
2018-02-15T01:27:06.245Z,1015.18
2018-02-15T01:28:06.210Z,1015.16
2018-02-15T01:29:06.173Z,1015.09
2018-02-15T01:30:06.141Z,1015.10
2018-02-15T01:31:06.110Z,1015.13
2018-02-15T01:32:06.074Z,1015.18
2018-02-15T01:33:06.043Z,1015.08
2018-02-15T01:34:06.008Z,1015.11
2018-02-15T01:35:05.969Z,1014.99
2018-02-15T01:36:05.985Z,1015.09
2018-02-15T01:37:06.207Z,1014.99
2018-02-15T01:38:05.869Z,1014.99
2018-02-15T01:39:05.843Z,1014.98
2018-02-15T01:40:05.816Z,1014.99
2018-02-15T01:41:05.771Z,1015.04
2018-02-15T01:42:05.745Z,1015.01
2018-02-15T01:43:05.711Z,1015.07
2018-02-15T01:44:05.682Z,1014.98
2018-02-15T01:45:05.650Z,1014.88
2018-02-15T01:46:05.616Z,1015.05
2018-02-15T01:47:05.579Z,1014.99
2018-02-15T01:48:05.563Z,1014.87
2018-02-15T01:49:05.544Z,1015.04
2018-02-15T01:50:05.483Z,1015.05
2018-02-15T01:51:05.446Z,1015.02
2018-02-15T01:52:05.417Z,1015.03
2018-02-15T01:53:05.381Z,1014.92
2018-02-15T01:54:05.346Z,1015.01
2018-02-15T01:55:05.580Z,1015.12
2018-02-15T01:56:05.290Z,1014.97
2018-02-15T01:57:05.256Z,1015.07
2018-02-15T01:58:05.213Z,1015.10
2018-02-15T01:59:05.190Z,1015.14
2018-02-15T02:00:05.158Z,1015.07
2018-02-15T02:01:05.381Z,1015.15
2018-02-15T02:02:05.086Z,1015.11
2018-02-15T02:03:05.047Z,1015.13
2018-02-15T02:04:05.021Z,1015.00
2018-02-15T02:05:04.992Z,1015.17
2018-02-15T02:06:04.955Z,1015.16
2018-02-15T02:07:04.918Z,1015.14
2018-02-15T02:08:04.888Z,1015.03
2018-02-15T02:09:04.852Z,1015.08
2018-02-15T02:10:04.818Z,1015.05
2018-02-15T02:11:04.796Z,1015.05
2018-02-15T02:12:04.756Z,1015.08
2018-02-15T02:13:05.032Z,1015.10
2018-02-15T02:14:04.692Z,1015.05
2018-02-15T02:15:04.659Z,1014.94
2018-02-15T02:16:04.629Z,1014.91
2018-02-15T02:17:04.596Z,1014.94
2018-02-15T02:18:04.820Z,1014.86
2018-02-15T02:19:04.526Z,1014.76
2018-02-15T02:20:04.494Z,1014.71
2018-02-15T02:21:04.471Z,1014.68
2018-02-15T02:22:04.434Z,1014.64
2018-02-15T02:23:04.400Z,1014.62
2018-02-15T02:24:04.364Z,1014.57
2018-02-15T02:25:04.332Z,1014.54
2018-02-15T02:26:04.296Z,1014.59
2018-02-15T02:27:04.272Z,1014.29
2018-02-15T02:28:04.237Z,1014.55
2018-02-15T02:29:04.197Z,1014.66
2018-02-15T02:30:04.165Z,1014.55
2018-02-15T02:31:04.132Z,1014.61
2018-02-15T02:32:04.104Z,1014.43
2018-02-15T02:33:04.073Z,1014.55
2018-02-15T02:34:04.038Z,1014.52
2018-02-15T02:35:04.005Z,1014.47
2018-02-15T02:36:04.274Z,1014.40
2018-02-15T02:37:03.943Z,1014.29
2018-02-15T02:38:03.903Z,1014.46
2018-02-15T02:39:03.872Z,1014.39
2018-02-15T02:40:03.838Z,1014.30
2018-02-15T02:41:03.811Z,1014.37
2018-02-15T02:42:03.774Z,1014.41
2018-02-15T02:43:03.744Z,1014.33
2018-02-15T02:44:03.716Z,1014.34
2018-02-15T02:45:03.678Z,1014.32
2018-02-15T02:46:03.639Z,1014.33
2018-02-15T02:47:03.619Z,1014.36
2018-02-15T02:48:03.881Z,1014.39
2018-02-15T02:49:03.543Z,1014.44
2018-02-15T02:50:03.515Z,1014.32
2018-02-15T02:51:03.480Z,1014.42
2018-02-15T02:52:03.447Z,1014.26
2018-02-15T02:53:03.423Z,1014.28
2018-02-15T02:54:03.635Z,1014.19
2018-02-15T02:55:03.343Z,1014.25
2018-02-15T02:56:03.315Z,1014.21
2018-02-15T02:57:03.276Z,1014.18
2018-02-15T02:58:03.246Z,1014.07
2018-02-15T02:59:03.222Z,1014.13
2018-02-15T03:00:03.185Z,1014.01
2018-02-15T03:01:03.150Z,1013.99
2018-02-15T03:02:03.117Z,1013.88
2018-02-15T03:03:03.090Z,1013.97
2018-02-15T03:04:03.058Z,1013.89
2018-02-15T03:05:03.027Z,1013.91
2018-02-15T03:06:02.985Z,1013.86
2018-02-15T03:07:02.956Z,1013.92
2018-02-15T03:08:02.921Z,1013.88
2018-02-15T03:09:02.893Z,1013.87
2018-02-15T03:10:02.856Z,1013.75
2018-02-15T03:11:02.816Z,1013.88
2018-02-15T03:12:02.792Z,1013.85
2018-02-15T03:13:02.756Z,1013.77
2018-02-15T03:14:02.721Z,1013.88
2018-02-15T03:15:02.698Z,1013.82
2018-02-15T03:16:02.660Z,1013.87
2018-02-15T03:17:02.928Z,1013.82
2018-02-15T03:18:02.589Z,1013.88
2018-02-15T03:19:02.569Z,1013.69
2018-02-15T03:20:02.533Z,1013.72
2018-02-15T03:21:02.491Z,1013.83
2018-02-15T03:22:02.462Z,1013.76
2018-02-15T03:23:02.671Z,1013.80
2018-02-15T03:24:02.395Z,1013.87
2018-02-15T03:25:02.366Z,1013.73
2018-02-15T03:26:02.328Z,1013.78
2018-02-15T03:27:02.295Z,1013.76
2018-02-15T03:28:02.264Z,1013.73
2018-02-15T03:29:02.228Z,1013.81
2018-02-15T03:30:02.194Z,1013.74
2018-02-15T03:31:02.180Z,1013.80
2018-02-15T03:32:02.140Z,1013.85
2018-02-15T03:33:02.104Z,1013.85
2018-02-15T03:34:02.075Z,1013.90
2018-02-15T03:35:02.030Z,1013.92
2018-02-15T03:36:02.000Z,1013.86
2018-02-15T03:37:01.966Z,1013.85
2018-02-15T03:38:01.929Z,1013.80
2018-02-15T03:39:01.902Z,1013.87
2018-02-15T03:40:02.173Z,1013.92
2018-02-15T03:41:01.837Z,1013.79
2018-02-15T03:42:01.801Z,1013.91
2018-02-15T03:43:01.773Z,1013.83
2018-02-15T03:44:01.742Z,1013.95
2018-02-15T03:45:01.710Z,1013.88
2018-02-15T03:46:01.670Z,1013.78
2018-02-15T03:47:01.638Z,1013.91
2018-02-15T03:48:01.607Z,1013.78
2018-02-15T03:49:01.573Z,1013.88
2018-02-15T03:50:01.545Z,1013.86
2018-02-15T03:51:01.507Z,1013.73
2018-02-15T03:52:01.771Z,1013.82
2018-02-15T03:53:01.439Z,1013.86
2018-02-15T03:54:01.407Z,1013.83
2018-02-15T03:55:01.384Z,1013.82
2018-02-15T03:56:01.348Z,1013.85
2018-02-15T03:57:01.312Z,1013.84
2018-02-15T03:58:01.272Z,1013.69
2018-02-15T03:59:01.255Z,1013.65
2018-02-15T04:00:01.212Z,1013.83
2018-02-15T04:01:01.186Z,1013.75
2018-02-15T04:02:01.151Z,1013.74
2018-02-15T04:03:01.120Z,1013.69
2018-02-15T04:04:01.388Z,1013.67
2018-02-15T04:05:01.063Z,1013.36
2018-02-15T04:06:01.017Z,1013.61
2018-02-15T04:07:00.981Z,1013.74
2018-02-15T04:08:00.951Z,1013.70
2018-02-15T04:09:00.924Z,1013.71
2018-02-15T04:10:01.229Z,1013.67
2018-02-15T04:11:00.858Z,1013.68
2018-02-15T04:12:00.818Z,1013.59
2018-02-15T04:13:00.784Z,1013.50
2018-02-15T04:14:00.753Z,1013.62
2018-02-15T04:15:00.739Z,1013.52
2018-02-15T04:16:00.702Z,1013.63
2018-02-15T04:17:00.663Z,1013.65
2018-02-15T04:18:00.627Z,1013.66
2018-02-15T04:19:00.592Z,1013.57
2018-02-15T04:20:00.559Z,1013.65
2018-02-15T04:21:00.524Z,1013.63
2018-02-15T04:22:00.492Z,1013.62
2018-02-15T04:23:00.461Z,1013.58
2018-02-15T04:24:00.429Z,1013.59
2018-02-15T04:25:00.392Z,1013.59
2018-02-15T04:26:00.360Z,1013.62
2018-02-15T04:27:00.330Z,1013.32
2018-02-15T04:28:00.299Z,1013.60
2018-02-15T04:29:00.261Z,1013.47
2018-02-15T04:30:00.228Z,1013.62
2018-02-15T04:31:00.228Z,1013.55
2018-02-15T04:32:00.165Z,1013.53
2018-02-15T04:33:00.141Z,1013.55
2018-02-15T04:34:00.119Z,1013.49
2018-02-15T04:35:00.073Z,1013.46
2018-02-15T04:36:00.033Z,1013.34
2018-02-15T04:37:00.010Z,1013.42
2018-02-15T04:37:59.971Z,1013.39
2018-02-15T04:39:00.238Z,1013.46
2018-02-15T04:39:59.898Z,1013.40
2018-02-15T04:40:59.867Z,1013.42
2018-02-15T04:41:59.837Z,1013.42
2018-02-15T04:42:59.806Z,1013.37
2018-02-15T04:43:59.771Z,1013.31
2018-02-15T04:44:59.736Z,1013.36
2018-02-15T04:45:59.699Z,1013.40
2018-02-15T04:46:59.678Z,1013.51
2018-02-15T04:47:59.639Z,1013.49
2018-02-15T04:48:59.613Z,1013.35
2018-02-15T04:49:59.588Z,1013.37
2018-02-15T04:50:59.544Z,1013.41
2018-02-15T04:51:59.506Z,1013.37
2018-02-15T04:52:59.485Z,1013.29
2018-02-15T04:53:59.445Z,1013.37
2018-02-15T04:54:59.409Z,1013.11
2018-02-15T04:55:59.377Z,1013.15
2018-02-15T04:56:59.345Z,1013.21
2018-02-15T04:57:59.313Z,1013.16
2018-02-15T04:58:59.281Z,1013.13
2018-02-15T04:59:59.245Z,1013.27
2018-02-15T05:00:59.210Z,1013.28
2018-02-15T05:01:59.180Z,1013.35
2018-02-15T05:02:59.151Z,1013.19
2018-02-15T05:03:59.123Z,1013.30
2018-02-15T05:04:59.083Z,1013.27
2018-02-15T05:05:59.059Z,1013.14
2018-02-15T05:06:59.013Z,1013.19
2018-02-15T05:07:58.979Z,1013.02
2018-02-15T05:08:58.956Z,1012.81
2018-02-15T05:09:58.914Z,1013.11
2018-02-15T05:10:58.880Z,1013.05
2018-02-15T05:11:58.854Z,1013.02
2018-02-15T05:12:58.817Z,1013.08
2018-02-15T05:13:58.794Z,1012.96
2018-02-15T05:14:58.755Z,1012.97
2018-02-15T05:15:58.720Z,1012.89
2018-02-15T05:16:58.681Z,1012.84
2018-02-15T05:17:58.655Z,1012.86
2018-02-15T05:18:58.624Z,1012.94
2018-02-15T05:19:58.591Z,1013.02
2018-02-15T05:20:58.561Z,1012.85
2018-02-15T05:21:58.523Z,1012.92
2018-02-15T05:22:58.504Z,1012.87
2018-02-15T05:23:58.454Z,1012.92
2018-02-15T05:24:58.432Z,1012.93
2018-02-15T05:25:58.395Z,1012.73
2018-02-15T05:26:58.364Z,1012.80
2018-02-15T05:27:58.328Z,1012.67
2018-02-15T05:28:58.294Z,1012.84
2018-02-15T05:29:58.260Z,1012.88
2018-02-15T05:30:58.225Z,1012.84
2018-02-15T05:31:58.196Z,1012.81
2018-02-15T05:32:58.160Z,1012.71
2018-02-15T05:33:58.129Z,1012.71
2018-02-15T05:34:58.099Z,1012.63
2018-02-15T05:35:58.071Z,1012.60
2018-02-15T05:36:58.029Z,1012.69
2018-02-15T05:37:57.999Z,1012.67
2018-02-15T05:38:57.962Z,1012.76
2018-02-15T05:39:57.933Z,1012.64
2018-02-15T05:40:57.897Z,1012.79
2018-02-15T05:41:57.863Z,1012.79
2018-02-15T05:42:57.829Z,1012.64
2018-02-15T05:43:57.802Z,1012.80
2018-02-15T05:44:57.768Z,1012.74
2018-02-15T05:45:57.736Z,1012.80
2018-02-15T05:46:57.705Z,1012.60
2018-02-15T05:47:57.662Z,1012.65
2018-02-15T05:48:57.638Z,1012.76
2018-02-15T05:49:57.599Z,1012.77
2018-02-15T05:50:57.564Z,1012.65
2018-02-15T05:51:57.533Z,1012.66
2018-02-15T05:52:57.499Z,1012.69
2018-02-15T05:53:57.469Z,1012.67
2018-02-15T05:54:57.696Z,1012.63
2018-02-15T05:55:57.406Z,1012.73
2018-02-15T05:56:57.369Z,1012.81
2018-02-15T05:57:57.336Z,1012.61
2018-02-15T05:58:57.304Z,1012.76
2018-02-15T05:59:57.273Z,1012.73
2018-02-15T06:00:57.243Z,1012.70
2018-02-15T06:01:57.202Z,1012.66
2018-02-15T06:02:57.162Z,1012.59
2018-02-15T06:03:57.130Z,1012.52
2018-02-15T06:04:57.110Z,1012.53
2018-02-15T06:05:57.071Z,1012.40
2018-02-15T06:06:57.290Z,1012.67
2018-02-15T06:07:57.002Z,1012.60
2018-02-15T06:08:56.967Z,1012.59
2018-02-15T06:09:56.934Z,1012.66
2018-02-15T06:10:56.907Z,1012.64
2018-02-15T06:11:56.876Z,1012.55
2018-02-15T06:12:57.131Z,1012.50
2018-02-15T06:13:56.804Z,1012.52
2018-02-15T06:14:56.776Z,1012.29
2018-02-15T06:15:56.740Z,1012.30
2018-02-15T06:16:56.706Z,1012.48
2018-02-15T06:17:56.672Z,1012.57
2018-02-15T06:18:56.634Z,1012.47
2018-02-15T06:19:56.602Z,1012.35
2018-02-15T06:20:56.574Z,1012.24
2018-02-15T06:21:56.543Z,1012.41
2018-02-15T06:22:56.503Z,1012.23
2018-02-15T06:23:56.824Z,1012.43
2018-02-15T06:24:56.438Z,1012.33
2018-02-15T06:25:56.402Z,1012.36
2018-02-15T06:26:56.377Z,1012.43
2018-02-15T06:27:56.342Z,1012.41
2018-02-15T06:28:56.311Z,1012.48
2018-02-15T06:29:56.567Z,1012.36
2018-02-15T06:30:56.237Z,1012.35
2018-02-15T06:31:56.209Z,1012.34
2018-02-15T06:32:56.176Z,1012.40
2018-02-15T06:33:56.138Z,1012.03
2018-02-15T06:34:56.102Z,1012.40
2018-02-15T06:35:56.080Z,1012.37
2018-02-15T06:36:56.068Z,1012.41
2018-02-15T06:37:56.007Z,1011.97
2018-02-15T06:38:55.974Z,1012.37
2018-02-15T06:39:55.950Z,1012.26
2018-02-15T06:40:55.899Z,1012.29
2018-02-15T06:41:55.864Z,1012.29
2018-02-15T06:42:55.835Z,1012.06
2018-02-15T06:43:55.803Z,1012.26
2018-02-15T06:44:55.769Z,1012.29
2018-02-15T06:45:55.734Z,1012.25
2018-02-15T06:46:55.722Z,1012.27
2018-02-15T06:47:55.679Z,1012.26
2018-02-15T06:48:55.640Z,1012.14
2018-02-15T06:49:55.604Z,1012.28
2018-02-15T06:50:55.567Z,1012.17
2018-02-15T06:51:55.537Z,1012.27
2018-02-15T06:52:55.509Z,1012.25
2018-02-15T06:53:55.473Z,1012.21
2018-02-15T06:54:55.437Z,1012.26
2018-02-15T06:55:55.404Z,1012.26
2018-02-15T06:56:55.370Z,1012.21
2018-02-15T06:57:55.334Z,1012.28
2018-02-15T06:58:55.309Z,1012.13
2018-02-15T06:59:55.270Z,1011.76
2018-02-15T07:00:55.242Z,1011.71
2018-02-15T07:01:55.202Z,1012.17
2018-02-15T07:02:55.178Z,1012.23
2018-02-15T07:03:55.143Z,1012.31
2018-02-15T07:04:55.407Z,1012.34
2018-02-15T07:05:55.083Z,1012.26
2018-02-15T07:06:55.047Z,1012.07
2018-02-15T07:07:55.008Z,1012.29
2018-02-15T07:08:54.975Z,1012.26
2018-02-15T07:09:54.947Z,1012.25
2018-02-15T07:10:54.910Z,1011.97
2018-02-15T07:11:54.874Z,1012.35
2018-02-15T07:12:54.841Z,1012.31
2018-02-15T07:13:54.809Z,1012.19
2018-02-15T07:14:54.782Z,1012.29
2018-02-15T07:15:54.756Z,1012.26
2018-02-15T07:16:54.709Z,1012.25
2018-02-15T07:17:54.676Z,1012.00
2018-02-15T07:18:54.644Z,1012.24
2018-02-15T07:19:54.614Z,1012.33
2018-02-15T07:20:54.581Z,1012.21
2018-02-15T07:21:54.544Z,1012.30
2018-02-15T07:22:54.520Z,1012.25
2018-02-15T07:23:54.483Z,1012.23
2018-02-15T07:24:54.455Z,1012.29
2018-02-15T07:25:54.424Z,1012.22
2018-02-15T07:26:54.390Z,1012.19
2018-02-15T07:27:54.350Z,1012.12
2018-02-15T07:28:54.324Z,1012.04
2018-02-15T07:29:54.287Z,1012.20
2018-02-15T07:30:54.252Z,1012.17
2018-02-15T07:31:54.225Z,1012.20
2018-02-15T07:32:54.183Z,1012.26
2018-02-15T07:33:54.154Z,1012.12
2018-02-15T07:34:54.124Z,1012.13
2018-02-15T07:35:54.090Z,1012.08
2018-02-15T07:36:54.057Z,1012.03
2018-02-15T07:37:54.031Z,1012.01
2018-02-15T07:38:53.992Z,1012.08
2018-02-15T07:39:54.257Z,1012.15
2018-02-15T07:40:53.930Z,1012.10
2018-02-15T07:41:53.894Z,1012.04
2018-02-15T07:42:53.861Z,1012.10
2018-02-15T07:43:53.830Z,1011.93
2018-02-15T07:44:53.800Z,1012.13
2018-02-15T07:45:53.763Z,1012.03
2018-02-15T07:46:53.733Z,1012.06
2018-02-15T07:47:53.702Z,1011.98
2018-02-15T07:48:53.669Z,1011.94
2018-02-15T07:49:53.635Z,1012.09
2018-02-15T07:50:53.599Z,1011.90
2018-02-15T07:51:53.816Z,1012.06
2018-02-15T07:52:53.538Z,1012.17
2018-02-15T07:53:53.507Z,1011.99
2018-02-15T07:54:53.471Z,1012.06
2018-02-15T07:55:53.447Z,1011.97
2018-02-15T07:56:53.405Z,1012.07
2018-02-15T07:57:53.373Z,1011.97
2018-02-15T07:58:53.347Z,1011.99
2018-02-15T07:59:53.310Z,1012.03
2018-02-15T08:00:53.279Z,1011.96
2018-02-15T08:01:53.247Z,1012.00
2018-02-15T08:02:53.209Z,1011.96
2018-02-15T08:03:53.176Z,1011.89
2018-02-15T08:04:53.153Z,1011.97
2018-02-15T08:05:53.118Z,1011.87
2018-02-15T08:06:53.083Z,1011.70
2018-02-15T08:07:53.046Z,1011.89
2018-02-15T08:08:53.024Z,1011.88
2018-02-15T08:09:52.985Z,1011.80
2018-02-15T08:10:52.955Z,1011.89
2018-02-15T08:11:52.929Z,1011.90
2018-02-15T08:12:52.887Z,1011.91
2018-02-15T08:13:52.857Z,1011.89
2018-02-15T08:14:53.076Z,1011.80
2018-02-15T08:15:52.810Z,1011.89
2018-02-15T08:16:52.766Z,1011.89
2018-02-15T08:17:52.730Z,1011.62
2018-02-15T08:18:52.700Z,1011.88
2018-02-15T08:19:52.671Z,1011.51
2018-02-15T08:20:52.641Z,1011.82
2018-02-15T08:21:52.608Z,1011.78
2018-02-15T08:22:52.601Z,1011.84
2018-02-15T08:23:52.535Z,1011.70
2018-02-15T08:24:52.507Z,1011.74
2018-02-15T08:25:52.472Z,1011.77
2018-02-15T08:26:52.447Z,1011.53
2018-02-15T08:27:52.423Z,1011.67
2018-02-15T08:28:52.375Z,1011.80
2018-02-15T08:29:52.346Z,1011.67
2018-02-15T08:30:52.324Z,1011.75
2018-02-15T08:31:52.287Z,1011.78
2018-02-15T08:32:52.253Z,1011.85
2018-02-15T08:33:52.227Z,1011.89
2018-02-15T08:34:52.181Z,1011.92
2018-02-15T08:35:52.154Z,1011.81
2018-02-15T08:36:52.122Z,1011.79
2018-02-15T08:37:52.127Z,1011.68
2018-02-15T08:38:53.158Z,1011.89
2018-02-15T08:39:52.023Z,1011.90
2018-02-15T08:40:51.993Z,1011.82
2018-02-15T08:41:51.978Z,1011.84
2018-02-15T08:42:51.940Z,1011.86
2018-02-15T08:43:51.914Z,1011.84
2018-02-15T08:44:52.164Z,1011.69
2018-02-15T08:45:51.833Z,1011.78
2018-02-15T08:46:51.814Z,1011.83
2018-02-15T08:47:51.786Z,1011.51
2018-02-15T08:48:51.756Z,1011.71
2018-02-15T08:49:51.721Z,1011.66
2018-02-15T08:50:51.692Z,1011.83
2018-02-15T08:51:51.646Z,1011.73
2018-02-15T08:52:51.617Z,1011.83
2018-02-15T08:53:51.592Z,1011.82
2018-02-15T08:54:51.560Z,1011.82
2018-02-15T08:55:51.518Z,1011.89
2018-02-15T08:56:51.492Z,1011.85
2018-02-15T08:57:51.456Z,1011.83
2018-02-15T08:58:51.433Z,1011.87
2018-02-15T08:59:51.408Z,1011.83
2018-02-15T09:00:51.380Z,1011.90
2018-02-15T09:01:51.334Z,1011.73
2018-02-15T09:02:51.305Z,1011.85
2018-02-15T09:03:51.279Z,1011.61
2018-02-15T09:04:51.251Z,1011.85
2018-02-15T09:05:51.213Z,1011.67
2018-02-15T09:06:51.178Z,1011.71
2018-02-15T09:07:51.148Z,1011.78
2018-02-15T09:08:51.117Z,1011.67
2018-02-15T09:09:51.085Z,1011.56
2018-02-15T09:10:51.049Z,1011.51
2018-02-15T09:11:51.027Z,1011.67
2018-02-15T09:12:50.990Z,1011.59
2018-02-15T09:13:50.959Z,1011.66
2018-02-15T09:14:50.930Z,1011.51
2018-02-15T09:15:50.908Z,1011.66
2018-02-15T09:16:50.864Z,1011.58
2018-02-15T09:17:50.836Z,1011.54
2018-02-15T09:18:50.808Z,1011.55
2018-02-15T09:19:50.782Z,1011.52
2018-02-15T09:20:50.746Z,1011.64
2018-02-15T09:21:50.713Z,1011.43
2018-02-15T09:22:50.679Z,1011.68
2018-02-15T09:23:50.646Z,1011.57
2018-02-15T09:24:50.618Z,1011.60
2018-02-15T09:25:50.589Z,1011.60
2018-02-15T09:26:50.551Z,1011.46
2018-02-15T09:27:50.528Z,1011.53
2018-02-15T09:28:50.498Z,1011.45
2018-02-15T09:29:50.460Z,1011.26
2018-02-15T09:30:50.437Z,1011.29
2018-02-15T09:31:50.403Z,1011.30
2018-02-15T09:32:50.368Z,1011.40
2018-02-15T09:33:50.333Z,1011.32
2018-02-15T09:34:50.311Z,1011.35
2018-02-15T09:35:50.291Z,1011.40
2018-02-15T09:36:50.602Z,1011.31
2018-02-15T09:37:50.225Z,1011.38
2018-02-15T09:38:50.186Z,1011.34
2018-02-15T09:39:50.151Z,1011.29
2018-02-15T09:40:50.125Z,1011.25
2018-02-15T09:41:50.094Z,1011.04
2018-02-15T09:42:50.060Z,1010.97
2018-02-15T09:43:50.030Z,1011.15
2018-02-15T09:44:50.008Z,1011.03
2018-02-15T09:45:49.964Z,1011.05
2018-02-15T09:46:49.938Z,1011.25
2018-02-15T09:47:49.921Z,1011.16
2018-02-15T09:48:49.876Z,1011.13
2018-02-15T09:49:49.846Z,1011.21
2018-02-15T09:50:49.828Z,1011.11
2018-02-15T09:51:49.786Z,1011.19
2018-02-15T09:52:49.756Z,1011.14
2018-02-15T09:53:49.971Z,1010.99
2018-02-15T09:54:49.685Z,1011.12
2018-02-15T09:55:49.665Z,1011.08
2018-02-15T09:56:49.630Z,1011.16
2018-02-15T09:57:49.607Z,1010.96
2018-02-15T09:58:49.570Z,1010.67
2018-02-15T09:59:49.540Z,1011.00
2018-02-15T10:00:49.517Z,1010.91
2018-02-15T10:01:49.482Z,1010.89
2018-02-15T10:02:49.445Z,1010.91
2018-02-15T10:03:49.417Z,1010.75
2018-02-15T10:04:49.386Z,1010.80
2018-02-15T10:05:49.656Z,1010.86
2018-02-15T10:06:49.324Z,1010.74
2018-02-15T10:07:49.290Z,1010.62
2018-02-15T10:08:49.265Z,1010.84
2018-02-15T10:09:49.236Z,1010.89
2018-02-15T10:10:49.201Z,1010.95
2018-02-15T10:11:49.173Z,1010.79
2018-02-15T10:12:49.138Z,1010.89
2018-02-15T10:13:49.107Z,1010.77
2018-02-15T10:14:49.089Z,1010.92
2018-02-15T10:15:49.049Z,1010.80
2018-02-15T10:16:49.013Z,1010.64
2018-02-15T10:17:48.982Z,1010.66
2018-02-15T10:18:48.949Z,1010.72
2018-02-15T10:19:48.934Z,1010.52
2018-02-15T10:20:48.892Z,1010.61
2018-02-15T10:21:48.858Z,1010.70
2018-02-15T10:22:48.844Z,1010.85
2018-02-15T10:23:48.801Z,1010.70
2018-02-15T10:24:48.758Z,1010.70
2018-02-15T10:25:48.736Z,1010.69
2018-02-15T10:26:48.703Z,1010.76
2018-02-15T10:27:48.672Z,1010.58
2018-02-15T10:28:48.637Z,1010.69
2018-02-15T10:29:48.944Z,1010.58
2018-02-15T10:30:48.580Z,1010.63
2018-02-15T10:31:48.550Z,1010.70
2018-02-15T10:32:48.518Z,1010.73
2018-02-15T10:33:48.494Z,1010.50
2018-02-15T10:34:48.449Z,1010.52
2018-02-15T10:35:48.427Z,1010.62
2018-02-15T10:36:48.397Z,1010.51
2018-02-15T10:37:48.361Z,1010.40
2018-02-15T10:38:48.324Z,1010.64
2018-02-15T10:39:48.294Z,1010.61
2018-02-15T10:40:48.517Z,1010.61
2018-02-15T10:41:48.249Z,1010.47
2018-02-15T10:42:48.211Z,1010.32
2018-02-15T10:43:48.180Z,1010.73
2018-02-15T10:44:48.150Z,1010.10
2018-02-15T10:45:48.109Z,1010.60
2018-02-15T10:46:48.100Z,1010.59
2018-02-15T10:47:48.068Z,1010.39
2018-02-15T10:48:48.044Z,1010.45
2018-02-15T10:49:47.990Z,1010.40
2018-02-15T10:50:47.959Z,1010.17
2018-02-15T10:51:47.927Z,1010.09
2018-02-15T10:52:48.202Z,1010.33
2018-02-15T10:53:47.880Z,1010.39
2018-02-15T10:54:47.856Z,1010.46
2018-02-15T10:55:47.808Z,1010.44
2018-02-15T10:56:47.776Z,1010.40
2018-02-15T10:57:47.749Z,1010.53
2018-02-15T10:58:47.715Z,1010.21
2018-02-15T10:59:47.686Z,1010.37
2018-02-15T11:00:47.658Z,1010.34
2018-02-15T11:01:47.626Z,1010.42
2018-02-15T11:02:47.597Z,1010.47
2018-02-15T11:03:47.568Z,1010.42
2018-02-15T11:04:47.541Z,1010.50
2018-02-15T11:05:47.500Z,1010.38
2018-02-15T11:06:47.472Z,1010.28
2018-02-15T11:07:47.451Z,1010.38
2018-02-15T11:08:47.427Z,1010.29
2018-02-15T11:09:47.396Z,1010.56
2018-02-15T11:10:47.607Z,1010.41
2018-02-15T11:11:47.330Z,1010.45
2018-02-15T11:12:47.320Z,1010.47
2018-02-15T11:13:47.256Z,1010.33
2018-02-15T11:14:47.231Z,1010.39
2018-02-15T11:15:47.252Z,1010.33
2018-02-15T11:16:47.173Z,1010.39
2018-02-15T11:17:47.139Z,1010.39
2018-02-15T11:18:47.116Z,1010.42
2018-02-15T11:19:47.094Z,1010.26
2018-02-15T11:20:47.060Z,1010.35
2018-02-15T11:21:47.057Z,1010.40
2018-02-15T11:22:46.990Z,1010.28
2018-02-15T11:23:46.964Z,1010.12
2018-02-15T11:24:46.934Z,1010.34
2018-02-15T11:25:46.898Z,1010.28
2018-02-15T11:26:46.865Z,1010.22
2018-02-15T11:27:46.839Z,1010.29
2018-02-15T11:28:46.817Z,1010.12
2018-02-15T11:29:46.783Z,1010.02
2018-02-15T11:30:46.756Z,1010.36
2018-02-15T11:31:46.721Z,1010.17
2018-02-15T11:32:46.688Z,1010.16
2018-02-15T11:33:46.658Z,1010.21
2018-02-15T11:34:46.632Z,1010.00
2018-02-15T11:35:46.690Z,1010.07
2018-02-15T11:36:46.571Z,1010.23
2018-02-15T11:37:46.547Z,1010.20
2018-02-15T11:38:46.507Z,1010.31
2018-02-15T11:39:46.482Z,1010.25
2018-02-15T11:40:46.471Z,1010.41
2018-02-15T11:41:46.439Z,1010.19
2018-02-15T11:42:46.386Z,1010.09
2018-02-15T11:43:46.391Z,1010.28
2018-02-15T11:44:46.324Z,1009.90
2018-02-15T11:45:46.293Z,1010.16
2018-02-15T11:46:46.270Z,1010.15
2018-02-15T11:47:46.253Z,1009.74
2018-02-15T11:48:46.216Z,1010.27
2018-02-15T11:49:46.179Z,1010.13
2018-02-15T11:50:46.151Z,1010.21
2018-02-15T11:51:46.123Z,1009.66
2018-02-15T11:52:46.108Z,1009.94
2018-02-15T11:53:46.058Z,1009.68
2018-02-15T11:54:46.026Z,1009.95
2018-02-15T11:55:45.996Z,1010.12
2018-02-15T11:56:45.971Z,1010.24
2018-02-15T11:57:45.934Z,1010.32
2018-02-15T11:58:45.908Z,1010.30
2018-02-15T11:59:45.873Z,1009.95
2018-02-15T12:00:45.842Z,1010.06
2018-02-15T12:01:45.811Z,1010.19
2018-02-15T12:02:45.809Z,1010.14
2018-02-15T12:03:45.777Z,1010.10
2018-02-15T12:04:45.721Z,1010.18